Time;durP1;ratioP1;P1;durP2;ratioP2;P2;SDS_P1;SDS_P2;PMS_P1;PMS_P2;Temp;Humidity;BMP_temperature;BMP_pressure;BME280_temperature;BME280_humidity;BME280_pressure;Samples;Min_cycle;Max_cycle;Signal;HPM_P1;HPM_P2
2023/01/20 00:01:19;;;;;;;5.55;4.22;;;;;;;;;;5064228;28;20067;-40
2023/01/20 00:03:44;;;;;;;6.05;5.28;;;;;;;;;;5063305;28;20056;-41
2023/01/20 00:06:10;;;;;;;5.20;4.20;;;;;;;;;;5064895;28;20028;-40
2023/01/20 00:08:37;;;;;;;6.72;4.50;;;;;;;;;;5061186;28;20038;-40
2023/01/20 00:11:07;;;;;;;6.60;4.65;;;;;;;;;;5067369;28;20491;-43
2023/01/20 00:13:34;;;;;;;5.95;4.65;;;;;;;;;;5064843;28;20041;-41
2023/01/20 00:16:02;;;;;;;5.72;4.03;;;;;;;;;;5063706;28;20038;-41
2023/01/20 00:18:28;;;;;;;7.13;4.63;;;;;;;;;;5063952;28;20041;-46
2023/01/20 00:20:53;;;;;;;6.28;4.45;;;;;;;;;;5060244;28;20111;-43
2023/01/20 00:23:18;;;;;;;4.80;3.70;;;;;;;;;;5061633;28;20044;-40
2023/01/20 00:25:44;;;;;;;3.92;3.35;;;;;;;;;;5062171;28;20086;-41
2023/01/20 00:28:10;;;;;;;5.13;3.85;;;;;;;;;;5064791;28;20497;-41
2023/01/20 00:30:35;;;;;;;6.55;3.63;;;;;;;;;;5065435;28;20056;-40
2023/01/20 00:33:00;;;;;;;6.38;3.42;;;;;;;;;;5066213;28;20465;-41
2023/01/20 00:35:26;;;;;;;6.32;3.60;;;;;;;;;;5061547;28;20033;-41
2023/01/20 00:37:51;;;;;;;5.30;3.22;;;;;;;;;;5061553;28;20110;-43
2023/01/20 00:40:17;;;;;;;5.47;3.75;;;;;;;;;;5062973;28;20039;-41
2023/01/20 00:42:42;;;;;;;4.32;2.88;;;;;;;;;;5065098;28;20048;-42
2023/01/20 00:45:08;;;;;;;6.80;3.50;;;;;;;;;;5067956;28;20036;-41
2023/01/20 00:47:33;;;;;;;2.72;2.53;;;;;;;;;;5067186;28;20051;-40
2023/01/20 00:49:58;;;;;;;3.78;3.00;;;;;;;;;;5067386;28;20040;-40
2023/01/20 00:52:24;;;;;;;3.00;2.70;;;;;;;;;;5066240;28;20033;-41
2023/01/20 00:54:49;;;;;;;4.30;3.03;;;;;;;;;;5067155;28;20118;-48
2023/01/20 00:57:14;;;;;;;4.78;2.97;;;;;;;;;;5066755;28;20082;-40
2023/01/20 00:59:40;;;;;;;4.63;2.85;;;;;;;;;;5067216;28;20056;-41
2023/01/20 01:02:05;;;;;;;4.60;3.05;;;;;;;;;;5065929;28;20383;-41
2023/01/20 01:04:30;;;;;;;5.90;3.25;;;;;;;;;;5064396;28;20040;-41
2023/01/20 01:06:56;;;;;;;3.88;3.08;;;;;;;;;;5069841;28;20337;-40
2023/01/20 01:09:21;;;;;;;3.50;2.85;;;;;;;;;;5066394;28;20040;-40
2023/01/20 01:11:48;;;;;;;4.55;2.88;;;;;;;;;;5065206;28;20047;-41
2023/01/20 01:14:13;;;;;;;2.83;2.60;;;;;;;;;;5062974;28;20040;-41
2023/01/20 01:16:38;;;;;;;3.50;2.17;;;;;;;;;;5068195;28;20472;-42
2023/01/20 01:19:04;;;;;;;3.45;2.55;;;;;;;;;;5067455;28;20401;-41
2023/01/20 01:21:29;;;;;;;5.93;2.40;;;;;;;;;;5068410;28;20074;-42
2023/01/20 01:23:55;;;;;;;3.05;2.50;;;;;;;;;;5065510;28;20049;-41
2023/01/20 01:26:20;;;;;;;4.72;2.53;;;;;;;;;;5066681;28;20043;-40
2023/01/20 01:28:47;;;;;;;3.22;2.25;;;;;;;;;;5065640;28;20068;-41
2023/01/20 01:31:13;;;;;;;4.90;2.58;;;;;;;;;;5067304;28;20109;-44
2023/01/20 01:33:39;;;;;;;2.47;2.28;;;;;;;;;;5067750;28;20048;-41
2023/01/20 01:36:07;;;;;;;4.28;2.42;;;;;;;;;;5067720;28;20025;-41
2023/01/20 01:38:33;;;;;;;2.25;2.00;;;;;;;;;;5067992;28;20041;-41
2023/01/20 01:40:58;;;;;;;3.83;2.75;;;;;;;;;;5065216;28;20045;-44
2023/01/20 01:43:28;;;;;;;4.15;2.58;;;;;;;;;;5065507;28;20037;-41
2023/01/20 01:45:53;;;;;;;3.42;3.03;;;;;;;;;;5066513;28;20071;-43
2023/01/20 01:48:37;;;;;;;3.75;2.88;;;;;;;;;;5066825;28;20033;-40
2023/01/20 01:51:22;;;;;;;4.38;3.40;;;;;;;;;;5065867;28;20078;-41
2023/01/20 01:54:10;;;;;;;3.67;3.20;;;;;;;;;;5065605;28;20462;-41
2023/01/20 01:56:37;;;;;;;5.43;2.90;;;;;;;;;;5066122;28;20110;-41
2023/01/20 01:59:02;;;;;;;3.65;3.35;;;;;;;;;;5066614;28;20090;-41
2023/01/20 02:01:29;;;;;;;5.75;3.13;;;;;;;;;;5067246;28;20495;-42
2023/01/20 02:04:03;;;;;;;3.97;3.58;;;;;;;;;;5063475;28;20045;-40
2023/01/20 02:06:33;;;;;;;3.85;3.33;;;;;;;;;;5066838;28;20029;-41
2023/01/20 02:09:01;;;;;;;5.10;3.92;;;;;;;;;;5065359;28;20121;-40
2023/01/20 02:11:29;;;;;;;6.13;3.60;;;;;;;;;;5063111;28;20070;-41
2023/01/20 02:13:54;;;;;;;3.85;3.45;;;;;;;;;;5063255;28;20047;-41
2023/01/20 02:16:44;;;;;;;4.45;3.60;;;;;;;;;;5066620;28;20100;-41
2023/01/20 02:19:24;;;;;;;4.75;3.85;;;;;;;;;;5065634;28;20037;-40
2023/01/20 02:21:59;;;;;;;3.88;3.42;;;;;;;;;;5066184;28;20111;-41
2023/01/20 02:24:33;;;;;;;31.38;20.13;;;;;;;;;;5065620;28;20516;-41
2023/01/20 02:27:10;;;;;;;7.43;4.50;;;;;;;;;;5068084;28;20035;-41
2023/01/20 02:29:41;;;;;;;20.67;12.32;;;;;;;;;;5062645;28;20453;-43
2023/01/20 02:32:12;;;;;;;25.42;15.15;;;;;;;;;;5061812;28;20045;-41
2023/01/20 02:34:57;;;;;;;13.38;7.00;;;;;;;;;;5066617;28;20094;-41
2023/01/20 02:37:50;;;;;;;17.98;9.50;;;;;;;;;;5063772;28;20048;-40
2023/01/20 02:40:21;;;;;;;15.07;8.27;;;;;;;;;;5059982;28;20041;-41
2023/01/20 02:43:40;;;;;;;14.90;6.97;;;;;;;;;;5066739;28;20041;-41
2023/01/20 02:46:15;;;;;;;13.02;7.07;;;;;;;;;;4987248;28;20188;-43
2023/01/20 02:48:45;;;;;;;7.05;5.15;;;;;;;;;;4985512;28;20426;-41
2023/01/20 02:51:23;;;;;;;5.28;4.25;;;;;;;;;;4987328;28;20030;-41
2023/01/20 02:54:03;;;;;;;6.22;4.10;;;;;;;;;;4983495;28;20075;-41
2023/01/20 02:56:30;;;;;;;10.85;6.05;;;;;;;;;;4986928;28;20038;-43
2023/01/20 02:59:04;;;;;;;15.82;10.48;;;;;;;;;;4986285;28;20589;-41
2023/01/20 03:01:38;;;;;;;8.77;4.63;;;;;;;;;;4983281;28;20422;-42
2023/01/20 03:04:06;;;;;;;31.00;16.92;;;;;;;;;;4985249;28;20054;-41
2023/01/20 03:06:36;;;;;;;36.67;16.35;;;;;;;;;;4987381;28;20057;-45
2023/01/20 03:09:06;;;;;;;11.02;7.72;;;;;;;;;;4986400;28;20141;-41
2023/01/20 03:11:35;;;;;;;7.57;4.85;;;;;;;;;;4984489;28;20034;-41
2023/01/20 03:14:14;;;;;;;79.70;36.60;;;;;;;;;;4985599;28;20050;-40
2023/01/20 03:16:40;;;;;;;17.50;7.53;;;;;;;;;;4983475;28;20262;-40
2023/01/20 03:19:06;;;;;;;12.95;7.18;;;;;;;;;;4990991;28;20659;-40
2023/01/20 03:21:33;;;;;;;15.07;8.02;;;;;;;;;;5062991;28;20024;-41
2023/01/20 03:24:00;;;;;;;11.45;8.02;;;;;;;;;;5064789;28;20044;-40
2023/01/20 03:26:26;;;;;;;7.45;5.30;;;;;;;;;;5065747;28;20029;-43
2023/01/20 03:28:53;;;;;;;13.75;7.93;;;;;;;;;;5064843;28;20400;-41
2023/01/20 03:31:26;;;;;;;6.40;4.15;;;;;;;;;;5062976;28;20071;-40
2023/01/20 03:33:54;;;;;;;4.70;3.65;;;;;;;;;;5067101;28;20041;-41
2023/01/20 03:36:22;;;;;;;21.60;13.75;;;;;;;;;;5062910;28;20521;-40
2023/01/20 03:38:48;;;;;;;10.02;5.65;;;;;;;;;;5064802;28;20528;-41
2023/01/20 03:41:35;;;;;;;7.07;5.72;;;;;;;;;;5062060;28;20504;-41
2023/01/20 03:44:09;;;;;;;8.35;5.22;;;;;;;;;;5062042;28;20512;-41
2023/01/20 03:46:43;;;;;;;5.50;3.67;;;;;;;;;;5065050;28;20071;-41
2023/01/20 03:49:15;;;;;;;16.50;10.13;;;;;;;;;;5064995;28;20044;-43
2023/01/20 03:51:49;;;;;;;3.85;3.15;;;;;;;;;;5060530;28;20031;-45
2023/01/20 03:54:21;;;;;;;3.10;2.80;;;;;;;;;;5063403;28;20036;-40
2023/01/20 03:57:05;;;;;;;72.50;31.52;;;;;;;;;;5065194;28;20112;-41
2023/01/20 03:59:37;;;;;;;6.13;5.07;;;;;;;;;;5061958;28;20032;-41
2023/01/20 04:02:06;;;;;;;22.17;12.57;;;;;;;;;;5063497;28;20058;-41
2023/01/20 04:04:34;;;;;;;18.42;9.80;;;;;;;;;;5065147;28;20024;-41
2023/01/20 04:07:00;;;;;;;33.17;16.20;;;;;;;;;;5063315;28;20544;-41
2023/01/20 04:09:29;;;;;;;49.83;24.08;;;;;;;;;;5063320;28;20045;-40
2023/01/20 04:11:55;;;;;;;26.02;15.50;;;;;;;;;;5063064;28;20025;-41
2023/01/20 04:14:20;;;;;;;19.05;11.55;;;;;;;;;;5063054;28;20045;-42
2023/01/20 04:16:55;;;;;;;33.47;15.68;;;;;;;;;;5062629;28;20086;-40
2023/01/20 04:19:20;;;;;;;3.85;3.45;;;;;;;;;;5064183;28;20131;-44
2023/01/20 04:21:57;;;;;;;7.30;4.43;;;;;;;;;;5064370;28;20120;-41
2023/01/20 04:24:28;;;;;;;11.25;6.50;;;;;;;;;;5060725;28;20063;-41
2023/01/20 04:26:54;;;;;;;18.95;10.15;;;;;;;;;;5065805;28;20427;-40
2023/01/20 04:29:19;;;;;;;6.28;4.28;;;;;;;;;;5045271;28;20102;-42
2023/01/20 04:31:44;;;;;;;19.83;10.40;;;;;;;;;;5064260;28;20091;-42
2023/01/20 04:34:14;;;;;;;24.55;12.60;;;;;;;;;;5060194;28;20044;-40
2023/01/20 04:36:39;;;;;;;26.15;11.20;;;;;;;;;;5060430;28;20036;-41
2023/01/20 04:39:05;;;;;;;3.42;2.60;;;;;;;;;;5061705;28;20490;-41
2023/01/20 04:41:30;;;;;;;32.47;13.60;;;;;;;;;;5063093;28;20388;-42
2023/01/20 04:43:56;;;;;;;3.40;3.10;;;;;;;;;;5062923;28;20407;-41
2023/01/20 04:46:21;;;;;;;8.43;5.10;;;;;;;;;;5062170;28;20093;-40
2023/01/20 04:48:47;;;;;;;12.35;6.97;;;;;;;;;;5065371;28;20072;-41
2023/01/20 04:51:12;;;;;;;57.88;22.33;;;;;;;;;;5061493;28;20032;-41
2023/01/20 04:53:38;;;;;;;3.35;3.05;;;;;;;;;;5062195;28;20091;-41
2023/01/20 04:56:08;;;;;;;39.85;17.73;;;;;;;;;;5063712;28;20552;-41
2023/01/20 04:58:34;;;;;;;43.75;20.27;;;;;;;;;;5061260;28;20044;-40
2023/01/20 05:01:01;;;;;;;18.15;8.90;;;;;;;;;;5061746;28;20170;-40
2023/01/20 05:03:26;;;;;;;4.80;3.42;;;;;;;;;;5058343;28;20068;-41
2023/01/20 05:05:53;;;;;;;8.35;5.45;;;;;;;;;;5062707;28;20522;-40
2023/01/20 05:08:18;;;;;;;3.75;3.03;;;;;;;;;;5064262;28;20404;-41
2023/01/20 05:10:44;;;;;;;4.35;3.40;;;;;;;;;;5065726;28;20048;-41
2023/01/20 05:13:09;;;;;;;5.35;4.53;;;;;;;;;;5061983;28;20044;-40
2023/01/20 05:15:35;;;;;;;33.38;15.73;;;;;;;;;;5063533;28;20032;-39
2023/01/20 05:18:00;;;;;;;12.13;6.82;;;;;;;;;;5062119;28;20120;-41
2023/01/20 05:20:26;;;;;;;9.50;6.13;;;;;;;;;;5059765;28;20059;-41
2023/01/20 05:22:51;;;;;;;7.25;5.15;;;;;;;;;;5062066;28;20059;-44
2023/01/20 05:25:16;;;;;;;10.45;6.07;;;;;;;;;;5060110;28;20029;-41
2023/01/20 05:27:43;;;;;;;8.35;5.30;;;;;;;;;;5065494;28;20075;-43
2023/01/20 05:30:10;;;;;;;11.13;5.38;;;;;;;;;;5061603;28;20040;-40
2023/01/20 05:32:35;;;;;;;7.78;5.28;;;;;;;;;;5065432;28;20456;-41
2023/01/20 05:35:00;;;;;;;10.05;6.28;;;;;;;;;;5064703;28;20104;-40
2023/01/20 05:37:26;;;;;;;6.38;4.45;;;;;;;;;;5064035;28;20070;-40
2023/01/20 05:39:52;;;;;;;10.95;4.70;;;;;;;;;;5062906;28;20093;-42
2023/01/20 05:42:17;;;;;;;8.07;5.65;;;;;;;;;;5065253;28;20380;-44
2023/01/20 05:44:43;;;;;;;4.38;3.40;;;;;;;;;;5067195;28;20133;-41
2023/01/20 05:47:08;;;;;;;9.48;6.07;;;;;;;;;;5066743;28;20443;-40
2023/01/20 05:49:34;;;;;;;5.85;4.45;;;;;;;;;;5068173;28;20032;-41
2023/01/20 05:51:59;;;;;;;6.35;4.18;;;;;;;;;;5066525;28;20086;-41
2023/01/20 05:54:25;;;;;;;6.40;4.97;;;;;;;;;;5068571;28;20041;-41
2023/01/20 05:56:50;;;;;;;6.25;4.18;;;;;;;;;;5067182;28;20028;-40
2023/01/20 05:59:16;;;;;;;7.78;4.90;;;;;;;;;;5065417;28;20086;-41
2023/01/20 06:01:41;;;;;;;5.78;4.25;;;;;;;;;;5079058;28;20024;-41
2023/01/20 06:04:07;;;;;;;6.05;4.45;;;;;;;;;;5062119;28;20115;-44
2023/01/20 06:06:32;;;;;;;6.80;4.25;;;;;;;;;;5069150;28;20556;-42
2023/01/20 06:08:58;;;;;;;4.88;3.47;;;;;;;;;;5065449;28;20481;-41
2023/01/20 06:11:23;;;;;;;6.03;4.40;;;;;;;;;;5065119;28;20067;-41
2023/01/20 06:13:49;;;;;;;17.95;5.70;;;;;;;;;;5062105;28;20516;-40
2023/01/20 06:16:17;;;;;;;9.93;4.75;;;;;;;;;;5065159;28;20044;-40
2023/01/20 06:18:43;;;;;;;5.93;3.95;;;;;;;;;;5064440;28;20056;-40
2023/01/20 06:21:08;;;;;;;6.20;3.75;;;;;;;;;;5063363;28;20476;-40
2023/01/20 06:23:34;;;;;;;14.90;6.05;;;;;;;;;;5068011;28;20178;-39
2023/01/20 06:26:09;;;;;;;7.43;3.95;;;;;;;;;;5064165;28;20126;-40
2023/01/20 06:28:34;;;;;;;6.93;4.70;;;;;;;;;;5063320;28;20047;-40
2023/01/20 06:31:08;;;;;;;6.32;4.10;;;;;;;;;;5066120;28;20044;-45
2023/01/20 06:33:34;;;;;;;9.75;4.07;;;;;;;;;;5064774;28;20549;-41
2023/01/20 06:36:00;;;;;;;16.75;5.15;;;;;;;;;;5066129;28;20115;-40
2023/01/20 06:38:28;;;;;;;4.72;3.13;;;;;;;;;;5060962;28;20090;-40
2023/01/20 06:40:58;;;;;;;6.18;3.47;;;;;;;;;;5063884;28;20392;-46
2023/01/20 06:43:24;;;;;;;7.80;3.88;;;;;;;;;;5062964;28;20120;-41
2023/01/20 06:45:50;;;;;;;7.50;4.00;;;;;;;;;;5067496;28;20166;-41
2023/01/20 06:48:15;;;;;;;5.18;3.35;;;;;;;;;;5061125;28;20476;-42
2023/01/20 06:50:41;;;;;;;4.47;3.17;;;;;;;;;;5062474;28;20041;-41
2023/01/20 06:53:07;;;;;;;7.38;4.32;;;;;;;;;;5064318;28;20045;-41
2023/01/20 06:55:32;;;;;;;9.95;4.50;;;;;;;;;;5065805;28;20024;-41
2023/01/20 06:57:58;;;;;;;5.60;3.15;;;;;;;;;;5063696;28;20503;-41
2023/01/20 07:00:23;;;;;;;9.98;4.43;;;;;;;;;;5066055;28;20490;-44
2023/01/20 07:02:49;;;;;;;7.65;4.15;;;;;;;;;;5065738;28;20045;-41
2023/01/20 07:05:14;;;;;;;4.47;4.07;;;;;;;;;;5066527;28;20523;-41
2023/01/20 07:07:44;;;;;;;9.57;4.82;;;;;;;;;;5066789;28;20036;-43
2023/01/20 07:10:10;;;;;;;6.93;4.13;;;;;;;;;;5064853;28;20051;-43
2023/01/20 07:12:36;;;;;;;4.70;3.85;;;;;;;;;;5065829;28;20141;-43
2023/01/20 07:15:01;;;;;;;5.55;4.90;;;;;;;;;;5064001;28;20086;-41
2023/01/20 07:17:26;;;;;;;8.68;4.47;;;;;;;;;;5062205;28;20029;-42
2023/01/20 07:19:52;;;;;;;12.00;5.93;;;;;;;;;;5059727;28;20361;-42
2023/01/20 07:22:17;;;;;;;5.72;4.68;;;;;;;;;;5065324;28;20043;-41
2023/01/20 07:24:42;;;;;;;5.38;3.70;;;;;;;;;;5066945;28;20489;-41
2023/01/20 07:27:08;;;;;;;3.58;3.28;;;;;;;;;;5064906;28;20032;-41
2023/01/20 07:29:33;;;;;;;4.28;3.25;;;;;;;;;;5060648;28;20055;-41
2023/01/20 07:31:59;;;;;;;3.28;2.97;;;;;;;;;;5060588;28;20652;-41
2023/01/20 07:34:24;;;;;;;2.85;2.58;;;;;;;;;;5059653;28;20040;-41
2023/01/20 07:36:52;;;;;;;5.70;3.70;;;;;;;;;;5064604;28;20365;-39
2023/01/20 07:39:19;;;;;;;3.80;2.80;;;;;;;;;;5065412;28;20044;-41
2023/01/20 07:41:47;;;;;;;6.43;3.58;;;;;;;;;;5063072;28;20032;-39
2023/01/20 07:44:13;;;;;;;6.60;3.25;;;;;;;;;;5064261;28;20033;-41
2023/01/20 07:46:39;;;;;;;4.35;3.63;;;;;;;;;;5065061;28;20020;-39
2023/01/20 07:49:04;;;;;;;2.78;2.58;;;;;;;;;;5067926;28;20394;-41
2023/01/20 07:51:30;;;;;;;4.30;3.53;;;;;;;;;;5064585;28;20032;-41
2023/01/20 07:53:55;;;;;;;3.35;3.05;;;;;;;;;;5064196;28;20029;-41
2023/01/20 07:56:25;;;;;;;2.75;2.47;;;;;;;;;;5064967;28;20036;-41
2023/01/20 07:58:51;;;;;;;3.45;2.67;;;;;;;;;;5063839;28;21424;-41
2023/01/20 08:01:17;;;;;;;3.53;3.20;;;;;;;;;;5060881;28;20071;-41
2023/01/20 08:03:44;;;;;;;3.38;2.85;;;;;;;;;;5062442;28;20381;-42
2023/01/20 08:06:11;;;;;;;2.05;1.85;;;;;;;;;;5064965;28;20488;-41
2023/01/20 08:08:37;;;;;;;2.75;2.40;;;;;;;;;;5064509;28;20094;-42
2023/01/20 08:11:03;;;;;;;2.20;1.83;;;;;;;;;;5065795;28;20029;-41
2023/01/20 08:13:29;;;;;;;2.13;1.92;;;;;;;;;;5059454;28;20515;-41
2023/01/20 08:15:58;;;;;;;3.70;3.22;;;;;;;;;;5065988;28;20028;-41
2023/01/20 08:18:23;;;;;;;4.57;3.25;;;;;;;;;;5060192;28;21809;-42
2023/01/20 08:20:48;;;;;;;3.65;2.28;;;;;;;;;;5061543;28;20028;-41
2023/01/20 08:23:14;;;;;;;2.75;2.40;;;;;;;;;;5063320;28;20079;-42
2023/01/20 08:25:39;;;;;;;3.85;2.95;;;;;;;;;;5064074;28;20024;-41
2023/01/20 08:28:05;;;;;;;3.20;2.90;;;;;;;;;;5062261;28;20094;-42
2023/01/20 08:30:30;;;;;;;4.13;2.95;;;;;;;;;;5059690;28;20510;-41
2023/01/20 08:32:55;;;;;;;4.93;1.95;;;;;;;;;;5063265;28;20033;-41
2023/01/20 08:35:21;;;;;;;3.78;2.95;;;;;;;;;;5062948;28;20703;-41
2023/01/20 08:37:46;;;;;;;2.88;2.67;;;;;;;;;;5062160;28;20118;-42
2023/01/20 08:40:12;;;;;;;4.20;2.63;;;;;;;;;;5061254;28;20048;-41
2023/01/20 08:42:38;;;;;;;4.07;2.85;;;;;;;;;;5061823;28;20507;-41
2023/01/20 08:45:06;;;;;;;3.80;3.30;;;;;;;;;;5065594;28;20625;-41
2023/01/20 08:47:38;;;;;;;3.35;2.58;;;;;;;;;;5061713;28;20040;-41
2023/01/20 08:50:05;;;;;;;7.57;3.22;;;;;;;;;;5045934;28;20460;-41
2023/01/20 08:52:31;;;;;;;4.93;2.80;;;;;;;;;;5062957;28;20039;-42
2023/01/20 08:54:57;;;;;;;2.58;2.38;;;;;;;;;;5065139;28;20575;-41
2023/01/20 08:57:26;;;;;;;3.10;2.80;;;;;;;;;;5061749;28;20024;-48
2023/01/20 08:59:52;;;;;;;4.18;2.47;;;;;;;;;;5060241;28;20027;-41
2023/01/20 09:02:17;;;;;;;2.47;2.28;;;;;;;;;;5063000;28;20618;-41
2023/01/20 09:04:43;;;;;;;3.08;2.88;;;;;;;;;;5067524;28;20024;-41
2023/01/20 09:07:11;;;;;;;3.67;3.20;;;;;;;;;;5068068;28;20028;-40
2023/01/20 09:09:37;;;;;;;5.15;2.78;;;;;;;;;;5069592;28;20056;-44
2023/01/20 09:12:04;;;;;;;3.08;2.83;;;;;;;;;;5062700;28;23590;-42
2023/01/20 09:14:29;;;;;;;4.00;3.05;;;;;;;;;;5068283;28;20673;-43
2023/01/20 09:16:55;;;;;;;4.32;3.58;;;;;;;;;;5063919;28;20048;-40
2023/01/20 09:19:20;;;;;;;4.88;3.03;;;;;;;;;;5066670;28;20060;-41
2023/01/20 09:21:45;;;;;;;2.72;2.35;;;;;;;;;;5069209;28;20107;-41
2023/01/20 09:24:11;;;;;;;6.75;4.25;;;;;;;;;;5067513;28;20175;-41
2023/01/20 09:26:39;;;;;;;5.22;3.00;;;;;;;;;;5068253;28;20032;-41
2023/01/20 09:29:09;;;;;;;3.25;2.50;;;;;;;;;;5072795;28;20118;-42
2023/01/20 09:31:36;;;;;;;2.03;1.77;;;;;;;;;;5061519;28;21642;-43
2023/01/20 09:34:01;;;;;;;4.35;2.95;;;;;;;;;;5058202;28;20106;-41
2023/01/20 09:36:30;;;;;;;3.08;2.22;;;;;;;;;;5060829;28;20489;-43
2023/01/20 09:45:26;;;;;;;2.83;2.63;;;;;;;;;;4915658;29;20067;-41
2023/01/20 09:48:04;;;;;;;6.60;5.95;;;;;;;;;;4927165;29;20040;-41
2023/01/20 09:53:47;;;;;;;3.45;2.97;;;;;;;;;;4932572;28;20054;-41
2023/01/20 09:56:16;;;;;;;4.18;2.95;;;;;;;;;;4935359;29;20035;-43
2023/01/20 09:58:56;;;;;;;9.90;6.22;;;;;;;;;;4935406;29;20047;-41
2023/01/20 10:01:43;;;;;;;4.80;4.10;;;;;;;;;;4937324;29;20035;-41
2023/01/20 10:04:35;;;;;;;7.97;6.15;;;;;;;;;;4933759;28;20043;-41
2023/01/20 10:07:20;;;;;;;1.50;1.40;;;;;;;;;;4932376;29;20122;-42
2023/01/20 10:09:58;;;;;;;8.52;5.82;;;;;;;;;;4936717;29;20048;-41
2023/01/20 10:12:23;;;;;;;28.88;18.05;;;;;;;;;;4953347;28;20629;-42
2023/01/20 10:15:17;;;;;;;8.05;3.92;;;;;;;;;;4991952;28;20125;-41
2023/01/20 10:17:55;;;;;;;6.57;4.50;;;;;;;;;;4989768;28;20050;-41
2023/01/20 10:20:32;;;;;;;15.02;8.25;;;;;;;;;;4990377;28;20041;-41
2023/01/20 10:23:05;;;;;;;7.53;5.50;;;;;;;;;;5053847;28;20492;-41
2023/01/20 10:25:42;;;;;;;7.72;5.07;;;;;;;;;;5066406;28;20078;-41
2023/01/20 10:28:14;;;;;;;7.40;4.35;;;;;;;;;;5068353;28;20045;-41
2023/01/20 10:30:39;;;;;;;2.88;2.67;;;;;;;;;;5067847;28;20063;-41
2023/01/20 10:33:11;;;;;;;5.32;2.75;;;;;;;;;;5064342;28;20058;-41
2023/01/20 10:35:45;;;;;;;4.00;2.93;;;;;;;;;;5063390;28;20020;-41
2023/01/20 10:38:25;;;;;;;5.82;2.50;;;;;;;;;;5065016;28;20063;-42
2023/01/20 10:40:56;;;;;;;2.38;2.17;;;;;;;;;;5064793;28;20021;-41
2023/01/20 10:43:21;;;;;;;3.40;2.55;;;;;;;;;;5067422;28;20033;-41
2023/01/20 10:45:50;;;;;;;4.68;2.50;;;;;;;;;;5065529;28;20028;-41
2023/01/20 10:48:15;;;;;;;5.00;2.90;;;;;;;;;;5065721;28;20048;-40
2023/01/20 10:51:02;;;;;;;3.17;2.10;;;;;;;;;;5064914;28;20369;-44
2023/01/20 10:54:05;;;;;;;5.85;4.43;;;;;;;;;;5060330;28;20041;-41
2023/01/20 10:56:54;;;;;;;3.47;3.17;;;;;;;;;;5048279;28;20032;-41
2023/01/20 10:59:33;;;;;;;2.95;2.42;;;;;;;;;;5062719;28;20036;-41
2023/01/20 11:02:26;;;;;;;3.13;2.17;;;;;;;;;;5066010;28;20036;-41
2023/01/20 11:05:22;;;;;;;4.07;1.38;;;;;;;;;;5054421;28;20115;-41
2023/01/20 11:07:49;;;;;;;4.43;3.15;;;;;;;;;;5062218;28;20069;-41
2023/01/20 11:10:18;;;;;;;4.10;3.40;;;;;;;;;;5066458;28;20071;-42
2023/01/20 11:12:48;;;;;;;4.22;2.30;;;;;;;;;;5066308;28;20110;-41
2023/01/20 11:15:24;;;;;;;3.97;2.20;;;;;;;;;;5065024;28;20040;-40
2023/01/20 11:18:14;;;;;;;5.82;2.25;;;;;;;;;;5063002;28;20045;-41
2023/01/20 11:20:55;;;;;;;1.92;1.83;;;;;;;;;;5063684;28;20024;-41
2023/01/20 11:23:41;;;;;;;2.90;2.20;;;;;;;;;;5061541;28;20141;-40
2023/01/20 11:26:20;;;;;;;2.00;1.40;;;;;;;;;;5063654;28;20032;-41
2023/01/20 11:28:56;;;;;;;5.63;1.63;;;;;;;;;;5063443;28;20510;-41
2023/01/20 11:31:43;;;;;;;1.88;1.42;;;;;;;;;;5063850;28;20117;-41
2023/01/20 11:34:28;;;;;;;1.67;1.58;;;;;;;;;;5062813;28;20123;-41
2023/01/20 11:37:05;;;;;;;4.88;2.30;;;;;;;;;;5065348;28;20955;-41
2023/01/20 11:39:36;;;;;;;2.08;1.88;;;;;;;;;;5064251;28;20485;-41
2023/01/20 11:42:15;;;;;;;2.65;2.03;;;;;;;;;;5065084;28;20032;-43
2023/01/20 11:44:47;;;;;;;1.70;1.60;;;;;;;;;;5062761;28;20052;-40
2023/01/20 11:47:25;;;;;;;1.60;1.50;;;;;;;;;;5062300;28;20503;-40
2023/01/20 11:50:02;;;;;;;1.20;1.10;;;;;;;;;;5061884;28;20543;-41
2023/01/20 11:52:32;;;;;;;2.38;1.58;;;;;;;;;;5061477;28;20028;-40
2023/01/20 11:55:17;;;;;;;2.20;1.80;;;;;;;;;;5064771;28;20025;-41
2023/01/20 11:57:59;;;;;;;3.97;2.90;;;;;;;;;;5063994;28;20127;-41
2023/01/20 12:00:27;;;;;;;3.42;2.20;;;;;;;;;;5065087;28;20025;-44
2023/01/20 12:02:59;;;;;;;2.10;1.63;;;;;;;;;;5064337;28;20435;-40
2023/01/20 12:05:42;;;;;;;2.00;1.80;;;;;;;;;;5063692;28;20112;-40
2023/01/20 12:08:25;;;;;;;1.67;1.35;;;;;;;;;;5062637;28;20044;-40
2023/01/20 12:10:50;;;;;;;;;;;;;;;;;;5062784;28;20423;-40
2023/01/20 12:13:25;;;;;;;6.15;1.67;;;;;;;;;;5062938;28;19995;-45
2023/01/20 12:15:54;;;;;;;6.78;2.42;;;;;;;;;;5064453;28;20028;-40
2023/01/20 12:18:35;;;;;;;4.80;2.35;;;;;;;;;;5064328;28;20043;-40
2023/01/20 12:21:16;;;;;;;13.23;2.05;;;;;;;;;;5061213;28;20056;-41
2023/01/20 12:24:11;;;;;;;2.13;1.60;;;;;;;;;;5063479;28;20123;-40
2023/01/20 12:26:36;;;;;;;1.33;1.25;;;;;;;;;;5044350;28;20415;-40
2023/01/20 12:29:12;;;;;;;8.25;1.90;;;;;;;;;;5065540;28;20037;-40
2023/01/20 12:31:38;;;;;;;2.78;2.03;;;;;;;;;;5059892;28;20052;-40
2023/01/20 12:34:03;;;;;;;2.45;1.67;;;;;;;;;;5061487;28;20040;-40
2023/01/20 12:37:13;;;;;;;2.78;2.10;;;;;;;;;;5063468;28;20039;-41
2023/01/20 12:40:03;;;;;;;1.73;1.60;;;;;;;;;;5067281;28;20037;-40
2023/01/20 12:42:58;;;;;;;21.73;3.03;;;;;;;;;;5067015;28;20028;-41
2023/01/20 12:45:42;;;;;;;1.35;1.25;;;;;;;;;;5069659;28;20039;-40
2023/01/20 12:48:29;;;;;;;2.92;2.10;;;;;;;;;;5064894;28;20044;-41
2023/01/20 12:51:13;;;;;;;1.67;1.38;;;;;;;;;;5067155;28;20032;-40
2023/01/20 12:54:09;;;;;;;2.00;1.80;;;;;;;;;;5068024;28;20033;-41
2023/01/20 12:56:35;;;;;;;4.82;2.10;;;;;;;;;;5069138;28;20032;-41
2023/01/20 12:59:39;;;;;;;2.85;2.65;;;;;;;;;;5049623;28;20045;-41
2023/01/20 13:02:36;;;;;;;4.97;2.00;;;;;;;;;;5023985;28;20044;-40
2023/01/20 13:05:20;;;;;;;2.53;2.08;;;;;;;;;;5023424;28;20111;-41
2023/01/20 13:07:58;;;;;;;1.35;1.25;;;;;;;;;;5024551;28;20043;-40
2023/01/20 13:10:23;;;;;;;1.88;1.52;;;;;;;;;;5022444;28;20040;-41
2023/01/20 13:13:04;;;;;;;2.65;1.95;;;;;;;;;;5021679;28;20042;-42
2023/01/20 13:15:35;;;;;;;2.38;1.85;;;;;;;;;;5026654;28;20032;-40
2023/01/20 13:18:16;;;;;;;3.17;2.30;;;;;;;;;;5018934;28;20042;-40
2023/01/20 13:20:44;;;;;;;7.93;1.35;;;;;;;;;;5026244;28;20048;-41
2023/01/20 13:23:13;;;;;;;1.58;1.48;;;;;;;;;;5024400;28;20045;-41
2023/01/20 13:25:41;;;;;;;3.63;2.40;;;;;;;;;;5019431;28;20045;-41
2023/01/20 13:28:15;;;;;;;2.58;1.67;;;;;;;;;;5022380;28;20506;-41
2023/01/20 13:30:46;;;;;;;3.22;1.70;;;;;;;;;;5024114;28;20041;-41
2023/01/20 13:33:39;;;;;;;2.97;1.90;;;;;;;;;;5025539;28;20543;-41
2023/01/20 13:36:20;;;;;;;3.40;1.92;;;;;;;;;;5026011;28;20037;-41
2023/01/20 13:39:24;;;;;;;1.60;1.50;;;;;;;;;;5038761;28;20579;-40
2023/01/20 13:41:51;;;;;;;2.25;1.48;;;;;;;;;;4990200;28;20113;-41
2023/01/20 13:44:38;;;;;;;3.03;2.35;;;;;;;;;;4989206;28;20065;-41
2023/01/20 13:47:08;;;;;;;3.83;2.67;;;;;;;;;;4991342;28;20048;-40
2023/01/20 13:49:43;;;;;;;4.32;1.77;;;;;;;;;;4989292;28;20226;-41
2023/01/20 13:52:10;;;;;;;3.63;2.00;;;;;;;;;;4992497;28;20037;-41
2023/01/20 13:54:40;;;;;;;1.35;1.27;;;;;;;;;;4987551;28;20046;-41
2023/01/20 13:57:22;;;;;;;2.97;1.95;;;;;;;;;;4987776;28;20023;-42
2023/01/20 13:59:48;;;;;;;4.22;2.22;;;;;;;;;;4988402;28;20047;-41
2023/01/20 14:02:25;;;;;;;2.30;2.10;;;;;;;;;;4992863;28;20425;-41
2023/01/20 14:04:50;;;;;;;5.88;1.75;;;;;;;;;;4989514;28;20041;-41
2023/01/20 14:07:26;;;;;;;4.15;2.63;;;;;;;;;;4992613;28;20034;-40
2023/01/20 14:09:57;;;;;;;6.72;2.05;;;;;;;;;;4982813;28;20478;-41
2023/01/20 14:12:23;;;;;;;1.90;1.65;;;;;;;;;;4988936;28;20506;-41
2023/01/20 14:14:49;;;;;;;2.50;1.67;;;;;;;;;;4990682;28;20056;-41
2023/01/20 14:17:17;;;;;;;1.67;1.40;;;;;;;;;;4986287;28;20042;-41
2023/01/20 14:19:48;;;;;;;2.55;2.33;;;;;;;;;;5060553;28;20036;-41
2023/01/20 14:22:24;;;;;;;2.40;2.20;;;;;;;;;;5065295;28;20021;-41
2023/01/20 14:24:58;;;;;;;2.60;1.70;;;;;;;;;;5066697;28;20082;-41
2023/01/20 14:27:30;;;;;;;1.77;1.65;;;;;;;;;;5065619;28;20040;-41
2023/01/20 14:29:59;;;;;;;4.07;2.20;;;;;;;;;;5068236;28;20419;-41
2023/01/20 14:32:24;;;;;;;2.35;2.10;;;;;;;;;;5065507;28;20216;-40
2023/01/20 14:34:51;;;;;;;2.97;2.45;;;;;;;;;;5064975;28;20125;-42
2023/01/20 14:37:22;;;;;;;2.22;1.75;;;;;;;;;;5066003;28;20063;-41
2023/01/20 14:39:49;;;;;;;6.95;2.30;;;;;;;;;;5061284;28;20062;-41
2023/01/20 14:42:19;;;;;;;3.50;1.85;;;;;;;;;;5063628;28;20033;-42
2023/01/20 14:44:49;;;;;;;1.65;1.55;;;;;;;;;;5064693;28;20063;-41
2023/01/20 14:47:16;;;;;;;4.78;1.45;;;;;;;;;;5062864;28;20622;-41
2023/01/20 14:49:43;;;;;;;2.80;1.45;;;;;;;;;;5063426;28;20025;-41
2023/01/20 14:52:22;;;;;;;2.38;1.73;;;;;;;;;;5068614;28;20040;-42
2023/01/20 14:54:48;;;;;;;2.40;2.20;;;;;;;;;;5065026;28;20049;-42
2023/01/20 14:57:26;;;;;;;1.25;1.10;;;;;;;;;;5066843;28;20024;-41
2023/01/20 15:00:10;;;;;;;2.35;1.40;;;;;;;;;;5064575;28;20036;-41
2023/01/20 15:02:36;;;;;;;1.73;1.63;;;;;;;;;;5063431;28;20094;-45
2023/01/20 15:05:18;;;;;;;1.70;1.40;;;;;;;;;;5066767;28;20103;-41
2023/01/20 15:07:44;;;;;;;4.55;2.08;;;;;;;;;;5063205;28;20373;-41
2023/01/20 15:10:15;;;;;;;4.32;2.13;;;;;;;;;;5065131;28;20035;-44
2023/01/20 15:12:46;;;;;;;4.13;3.22;;;;;;;;;;5062843;28;20044;-41